Time;durP1;ratioP1;P1;durP2;ratioP2;P2;SDS_P1;SDS_P2;PMS_P1;PMS_P2;Temp;Humidity;BMP_temperature;BMP_pressure;BME280_temperature;BME280_humidity;BME280_pressure;Samples;Min_cycle;Max_cycle;Signal;HPM_P1;HPM_P2
2021/01/21 00:00:46;;;;;;;16.02;8.95;;;;;;;2.83;72.48;95911.57;1757363;81;21512;-85
2021/01/21 00:03:13;;;;;;;17.92;10.10;;;;;;;2.72;72.48;95902.55;1757298;81;21156;-85
2021/01/21 00:05:40;;;;;;;18.20;10.23;;;;;;;2.62;72.96;95892.75;1757375;81;21155;-84
2021/01/21 00:08:08;;;;;;;19.90;11.28;;;;;;;2.62;73.20;95893.53;1757215;81;21524;-84
2021/01/21 00:10:35;;;;;;;16.52;9.60;;;;;;;2.60;73.19;95928.84;1757356;82;21148;-84
2021/01/21 00:13:02;;;;;;;13.43;8.00;;;;;;;2.53;73.44;95917.75;1757366;81;21277;-84
2021/01/21 00:15:29;;;;;;;16.50;9.80;;;;;;;2.52;73.77;95882.16;1757256;82;21142;-84
2021/01/21 00:17:56;;;;;;;15.23;8.30;;;;;;;2.55;73.83;95881.17;1757061;82;21136;-84
2021/01/21 00:20:23;;;;;;;17.45;10.50;;;;;;;2.55;73.83;95874.63;1757247;81;21156;-84
2021/01/21 00:22:50;;;;;;;15.85;9.40;;;;;;;2.61;74.02;95893.78;1757171;82;21126;-84
2021/01/21 00:25:17;;;;;;;12.85;7.70;;;;;;;2.80;73.81;95876.70;1757363;82;21472;-84
2021/01/21 00:27:44;;;;;;;17.50;9.68;;;;;;;2.79;73.59;95880.36;1757522;82;21313;-85
2021/01/21 00:30:12;;;;;;;15.75;8.88;;;;;;;2.76;73.50;95888.71;1757297;81;21139;-84
2021/01/21 00:32:40;;;;;;;18.10;11.25;;;;;;;2.69;73.55;95876.35;1757284;81;21147;-84
2021/01/21 00:35:08;;;;;;;14.63;9.35;;;;;;;2.63;73.91;95751.20;1757270;81;21151;-84
2021/01/21 00:37:35;;;;;;;15.23;9.25;;;;;;;2.72;73.84;95879.78;1757334;82;21697;-84
2021/01/21 00:40:02;;;;;;;16.62;8.73;;;;;;;2.68;73.94;95847.30;1757240;81;21591;-84
2021/01/21 00:42:29;;;;;;;16.90;9.05;;;;;;;2.66;74.05;95883.36;1757376;82;21152;-84
2021/01/21 00:44:56;;;;;;;15.38;9.18;;;;;;;2.61;74.05;95874.16;1757255;81;21112;-84
2021/01/21 00:47:24;;;;;;;15.35;10.23;;;;;;;2.56;74.31;95877.52;1757041;82;21131;-83
2021/01/21 00:49:51;;;;;;;14.75;8.33;;;;;;;2.63;74.43;95903.48;1757289;81;21177;-83
2021/01/21 00:52:18;;;;;;;12.18;8.08;;;;;;;2.65;74.19;95867.39;1757347;82;21135;-83
2021/01/21 00:54:45;;;;;;;13.88;7.95;;;;;;;2.62;74.47;95875.73;1757532;82;21116;-83
2021/01/21 00:57:12;;;;;;;16.15;7.58;;;;;;;2.65;74.51;95877.34;1757421;82;21285;-83
2021/01/21 00:59:39;;;;;;;12.33;7.70;;;;;;;2.68;74.40;95877.39;1757409;81;21169;-83
2021/01/21 01:02:06;;;;;;;15.98;9.83;;;;;;;2.72;74.39;95826.66;1757246;82;21147;-83
2021/01/21 01:04:33;;;;;;;16.73;8.13;;;;;;;2.82;74.26;95828.06;1757455;81;21143;-84
2021/01/21 01:07:00;;;;;;;14.35;8.03;;;;;;;2.85;73.97;95862.37;1757248;82;21140;-83
2021/01/21 01:09:28;;;;;;;15.05;7.35;;;;;;;2.81;73.91;95844.77;1757148;81;21120;-83
2021/01/21 01:11:56;;;;;;;13.88;6.40;;;;;;;2.72;74.16;95860.67;1757226;82;21468;-83
2021/01/21 01:14:23;;;;;;;12.98;7.75;;;;;;;2.75;74.28;95865.41;1757255;81;21131;-83
2021/01/21 01:16:51;;;;;;;13.85;6.92;;;;;;;2.80;74.30;95892.41;1757016;82;21143;-84
2021/01/21 01:19:18;;;;;;;10.75;6.58;;;;;;;2.86;74.21;95866.58;1757287;81;21539;-84
2021/01/21 01:21:46;;;;;;;11.08;6.17;;;;;;;2.91;74.16;95839.13;1757328;82;21120;-83
2021/01/21 01:24:13;;;;;;;9.95;6.28;;;;;;;2.96;73.99;95810.39;1754214;82;21184;-83
2021/01/21 01:26:40;;;;;;;13.58;7.12;;;;;;;3.03;73.75;95858.61;1751637;81;21143;-84
2021/01/21 01:29:08;;;;;;;12.13;6.85;;;;;;;3.12;73.56;95869.44;1751585;81;21144;-84
2021/01/21 01:31:35;;;;;;;10.75;6.33;;;;;;;3.11;73.51;95847.69;1751810;82;21660;-83
2021/01/21 01:34:02;;;;;;;14.43;7.00;;;;;;;3.02;73.48;95831.37;1751639;81;21266;-83
2021/01/21 01:36:29;;;;;;;10.53;6.67;;;;;;;3.06;73.64;95831.13;1751699;82;21116;-83
2021/01/21 01:38:56;;;;;;;7.60;5.08;;;;;;;3.04;73.64;95801.27;1751583;81;21151;-84
2021/01/21 01:41:29;;;;;;;9.73;5.62;;;;;;;3.05;73.69;95810.70;1751624;82;21658;-83
2021/01/21 01:43:56;;;;;;;11.25;6.12;;;;;;;3.09;73.72;95813.09;1751624;82;21148;-83
2021/01/21 01:46:27;;;;;;;10.53;5.58;;;;;;;3.14;73.65;95812.36;1751622;82;21140;-83
2021/01/21 01:49:01;;;;;;;14.05;6.80;;;;;;;3.13;73.51;95809.47;1751843;81;21168;-84
2021/01/21 01:51:30;;;;;;;8.45;5.62;;;;;;;3.09;73.47;95803.92;1751876;82;21152;-84
2021/01/21 01:54:00;;;;;;;12.03;6.95;;;;;;;3.07;73.58;95822.23;1751895;81;21151;-83
2021/01/21 01:56:28;;;;;;;12.73;7.70;;;;;;;3.05;73.68;95808.61;1751936;81;21148;-83
2021/01/21 01:58:57;;;;;;;10.82;7.72;;;;;;;3.02;73.76;95822.20;1751661;81;21485;-83
2021/01/21 02:01:24;;;;;;;10.38;5.20;;;;;;;2.98;73.79;95811.45;1751676;82;21298;-84
2021/01/21 02:03:53;;;;;;;9.00;5.97;;;;;;;3.00;74.04;95811.20;1751594;82;21155;-83
2021/01/21 02:06:20;;;;;;;10.48;5.87;;;;;;;3.10;74.00;95775.94;1751776;82;21274;-83
2021/01/21 02:08:48;;;;;;;8.88;6.15;;;;;;;3.19;73.73;95819.72;1751266;81;21246;-83
2021/01/21 02:11:30;;;;;;;12.63;5.97;;;;;;;3.23;73.48;95794.59;1751593;82;21476;-84
2021/01/21 02:14:25;;;;;;;12.15;5.78;;;;;;;3.29;73.28;95790.20;1742953;82;21167;-84
2021/01/21 02:17:05;;;;;;;10.28;5.25;;;;;;;3.31;73.11;95807.76;1751429;82;21120;-83
2021/01/21 02:20:05;;;;;;;7.45;4.95;;;;;;;3.23;73.14;95763.69;1751798;81;21144;-84
2021/01/21 02:23:06;;;;;;;8.38;4.22;;;;;;;3.24;73.14;95811.13;1750460;82;21547;-84
2021/01/21 02:26:02;;;;;;;9.10;4.72;;;;;;;3.27;73.05;95796.22;1757082;82;21171;-84
2021/01/21 02:29:00;;;;;;;10.05;5.95;;;;;;;3.38;72.78;95801.80;1757220;81;21155;-83
2021/01/21 02:31:50;;;;;;;8.25;5.60;;;;;;;3.41;72.73;95778.23;1757274;81;21127;-84
2021/01/21 02:34:34;;;;;;;11.70;5.87;;;;;;;3.35;72.80;95810.14;1757609;82;21286;-84
2021/01/21 02:37:02;;;;;;;6.30;4.03;;;;;;;3.31;72.80;95828.72;1757291;82;21144;-83
2021/01/21 02:39:30;;;;;;;10.05;4.83;;;;;;;3.34;72.86;95799.39;1757434;81;21169;-84
2021/01/21 02:41:58;;;;;;;9.98;4.50;;;;;;;3.32;72.80;95800.17;1757185;82;21543;-84
2021/01/21 02:44:29;;;;;;;12.40;6.62;;;;;;;3.35;72.89;95823.23;1757258;82;21137;-84
2021/01/21 02:46:58;;;;;;;11.50;6.28;;;;;;;3.42;72.80;95827.75;1757161;82;21152;-84
2021/01/21 02:49:26;;;;;;;7.00;4.17;;;;;;;3.36;72.66;95784.20;1757399;81;21283;-84
2021/01/21 02:51:58;;;;;;;10.35;6.25;;;;;;;3.37;72.61;95794.95;1757366;82;21143;-84
2021/01/21 02:55:07;;;;;;;9.65;4.90;;;;;;;3.43;72.52;95829.33;1757439;82;21507;-84
2021/01/21 02:58:04;;;;;;;12.37;6.03;;;;;;;3.38;72.51;95805.73;1757631;82;21309;-84
2021/01/21 03:00:34;;;;;;;10.00;4.90;;;;;;;3.31;72.49;95809.59;1770868;81;21161;-84
2021/01/21 03:03:07;;;;;;;8.05;4.72;;;;;;;3.15;72.78;95824.41;1776631;81;21454;-84
2021/01/21 03:05:35;;;;;;;7.78;5.20;;;;;;;3.15;73.04;95804.77;1776416;81;21111;-84
2021/01/21 03:08:03;;;;;;;8.18;5.05;;;;;;;3.22;73.20;95817.91;1776657;81;21518;-83
2021/01/21 03:10:30;;;;;;;8.90;5.30;;;;;;;3.35;73.01;95819.30;1750475;81;21161;-84
2021/01/21 03:12:59;;;;;;;9.48;5.60;;;;;;;3.43;72.71;95820.16;1776525;81;21525;-83
2021/01/21 03:15:28;;;;;;;7.10;4.40;;;;;;;3.56;72.26;95763.38;1751018;81;21115;-84
2021/01/21 03:17:55;;;;;;;11.50;6.03;;;;;;;3.64;71.85;95793.55;1763841;81;21274;-83
2021/01/21 03:20:22;;;;;;;7.80;4.53;;;;;;;3.75;71.36;95768.19;1757302;81;21144;-84
2021/01/21 03:22:49;;;;;;;6.95;4.03;;;;;;;3.80;71.18;95806.20;1757607;82;21303;-84
2021/01/21 03:25:16;;;;;;;9.25;4.53;;;;;;;3.84;70.93;95837.45;1753128;81;21294;-84
2021/01/21 03:27:43;;;;;;;6.33;4.17;;;;;;;3.86;70.67;95810.45;1751718;82;21646;-83
2021/01/21 03:30:11;;;;;;;8.75;4.92;;;;;;;3.87;70.65;95829.06;1751757;81;21658;-84
2021/01/21 03:32:38;;;;;;;7.95;5.12;;;;;;;3.73;70.77;95808.28;1751797;82;21516;-84
2021/01/21 03:35:08;;;;;;;8.18;4.25;;;;;;;3.61;71.17;95843.06;1751703;82;21290;-84
2021/01/21 03:37:35;;;;;;;7.78;3.60;;;;;;;3.53;71.34;95799.80;1751903;82;21481;-84
2021/01/21 03:40:03;;;;;;;7.65;4.90;;;;;;;3.50;71.47;95825.95;1751762;81;21293;-84
2021/01/21 03:42:30;;;;;;;6.78;4.75;;;;;;;3.50;71.87;95833.82;1751708;82;21147;-84
2021/01/21 03:44:57;;;;;;;6.97;4.28;;;;;;;3.49;71.77;95825.69;1751717;82;21298;-84
2021/01/21 03:47:24;;;;;;;9.05;5.50;;;;;;;3.43;71.87;95820.16;1751565;82;21298;-84
2021/01/21 03:49:51;;;;;;;8.05;4.85;;;;;;;3.44;72.05;95833.53;1751630;81;21193;-84
2021/01/21 03:52:18;;;;;;;6.20;4.22;;;;;;;3.41;72.14;95826.17;1751692;82;21512;-84
2021/01/21 03:54:46;;;;;;;8.05;4.50;;;;;;;3.37;72.14;95814.60;1751689;82;21151;-84
2021/01/21 03:57:13;;;;;;;8.20;4.72;;;;;;;3.40;72.17;95820.67;1751768;82;21322;-84
2021/01/21 03:59:40;;;;;;;7.28;4.42;;;;;;;3.41;72.13;95817.01;1751732;81;21156;-84
2021/01/21 04:02:06;;;;;;;8.45;3.77;;;;;;;3.41;72.05;95818.84;1751664;82;21133;-84
2021/01/21 04:04:33;;;;;;;7.90;5.05;;;;;;;3.35;72.12;95783.94;1751670;82;21139;-84
2021/01/21 04:07:00;;;;;;;9.08;4.90;;;;;;;3.32;72.20;95819.81;1751801;81;21511;-84
2021/01/21 04:09:28;;;;;;;7.80;4.35;;;;;;;3.30;72.30;95817.19;1751714;81;21120;-84
2021/01/21 04:11:55;;;;;;;10.75;5.65;;;;;;;3.26;72.45;95822.93;1751769;81;21164;-84
2021/01/21 04:14:21;;;;;;;4.92;3.15;;;;;;;3.27;72.50;95805.38;1751685;81;21274;-84
2021/01/21 04:16:48;;;;;;;7.72;4.42;;;;;;;3.20;72.59;95800.34;1751505;81;21282;-84
2021/01/21 04:19:15;;;;;;;6.08;3.92;;;;;;;3.16;72.75;95801.11;1751632;81;21323;-84
2021/01/21 04:21:42;;;;;;;9.80;4.75;;;;;;;3.15;72.98;95786.44;1751889;82;21135;-84
2021/01/21 04:24:10;;;;;;;7.37;4.58;;;;;;;3.18;73.09;95792.47;1751690;82;21321;-84
2021/01/21 04:26:37;;;;;;;10.65;5.83;;;;;;;3.17;73.10;95772.56;1751759;82;21291;-84
2021/01/21 04:29:04;;;;;;;9.33;4.97;;;;;;;3.16;72.99;95794.03;1751582;81;21163;-84
2021/01/21 04:31:31;;;;;;;8.98;4.87;;;;;;;3.14;73.17;95758.67;1751843;82;21278;-84
2021/01/21 04:33:58;;;;;;;8.18;3.95;;;;;;;3.16;73.21;95785.39;1751600;81;21137;-84
2021/01/21 04:36:25;;;;;;;9.40;4.47;;;;;;;3.20;73.22;95788.55;1764843;81;21293;-84
2021/01/21 04:38:52;;;;;;;8.05;5.08;;;;;;;3.27;73.15;95772.64;1764744;81;21312;-84
2021/01/21 04:41:19;;;;;;;6.65;4.85;;;;;;;3.28;73.03;95771.08;1764727;81;21151;-84
2021/01/21 04:43:46;;;;;;;5.47;3.70;;;;;;;3.28;72.99;95759.81;1764841;81;21143;-84
2021/01/21 04:46:13;;;;;;;6.53;3.65;;;;;;;3.33;72.92;95743.33;1764842;81;21151;-84
2021/01/21 04:48:41;;;;;;;6.17;4.37;;;;;;;3.33;72.92;95774.77;1751836;81;21186;-84
2021/01/21 04:51:09;;;;;;;6.97;4.35;;;;;;;3.32;72.95;95782.36;1722457;82;21144;-84
2021/01/21 04:53:39;;;;;;;7.65;4.62;;;;;;;3.32;72.90;95749.09;1751848;82;21180;-84
2021/01/21 04:56:09;;;;;;;6.08;3.62;;;;;;;3.29;72.87;95790.20;1751802;82;21140;-84
2021/01/21 04:58:41;;;;;;;6.67;4.00;;;;;;;3.34;73.00;95799.91;1751651;81;21162;-84
2021/01/21 05:01:09;;;;;;;7.33;4.28;;;;;;;3.43;72.83;95773.00;1751949;82;21120;-84
2021/01/21 05:03:37;;;;;;;9.75;4.12;;;;;;;3.48;72.62;95780.09;1751629;82;21317;-84
2021/01/21 05:06:05;;;;;;;5.90;3.92;;;;;;;3.50;72.52;95786.66;1751671;81;21642;-85
2021/01/21 05:08:33;;;;;;;5.78;3.02;;;;;;;3.49;72.37;95765.42;1751590;81;21503;-85
2021/01/21 05:11:00;;;;;;;7.58;4.67;;;;;;;3.48;72.44;95773.02;1751719;82;21647;-84
2021/01/21 05:13:27;;;;;;;6.05;3.30;;;;;;;3.46;72.53;95773.80;1751704;82;21112;-84
2021/01/21 05:15:54;;;;;;;5.58;3.95;;;;;;;3.47;72.59;95749.17;1751959;81;21128;-84
2021/01/21 05:18:28;;;;;;;8.28;4.62;;;;;;;3.50;72.55;95770.14;1751742;81;21228;-84
2021/01/21 05:20:55;;;;;;;7.83;4.92;;;;;;;3.47;72.49;95770.14;1751343;82;21681;-84
2021/01/21 05:23:28;;;;;;;7.03;3.47;;;;;;;3.46;72.55;95763.31;1751720;82;21642;-84
2021/01/21 05:25:56;;;;;;;8.35;3.40;;;;;;;3.45;72.45;95741.30;1756074;82;21172;-84
2021/01/21 05:28:26;;;;;;;5.20;3.75;;;;;;;3.42;72.70;95775.88;1729910;81;21177;-84
2021/01/21 05:30:59;;;;;;;6.08;3.27;;;;;;;3.43;72.70;95778.23;1757591;82;21119;-84
2021/01/21 05:33:30;;;;;;;8.30;4.95;;;;;;;3.39;72.71;95784.25;1757293;82;21128;-84
2021/01/21 05:35:57;;;;;;;8.03;4.17;;;;;;;3.30;72.82;95776.58;1757751;82;21289;-84
2021/01/21 05:38:26;;;;;;;8.33;4.95;;;;;;;3.22;73.11;95783.85;1757396;81;21476;-84
2021/01/21 05:40:53;;;;;;;8.15;4.40;;;;;;;3.19;73.17;95804.53;1757260;82;21476;-84
2021/01/21 05:43:22;;;;;;;6.95;4.40;;;;;;;3.13;73.14;95776.21;1729876;82;21638;-84
2021/01/21 05:45:52;;;;;;;5.87;3.25;;;;;;;3.10;73.45;95768.87;1729824;82;21139;-84
2021/01/21 05:48:20;;;;;;;6.35;3.08;;;;;;;3.09;73.56;95778.25;1757062;81;21140;-84
2021/01/21 05:50:48;;;;;;;6.92;4.20;;;;;;;3.10;73.66;95772.01;1757291;82;21144;-84
2021/01/21 05:53:17;;;;;;;8.13;4.15;;;;;;;3.12;73.76;95778.56;1757249;82;21524;-84
2021/01/21 05:55:45;;;;;;;7.58;4.22;;;;;;;3.16;73.76;95784.08;1730226;82;21163;-84
2021/01/21 05:58:12;;;;;;;5.67;3.75;;;;;;;3.16;73.75;95772.30;1757269;81;21503;-84
2021/01/21 06:00:43;;;;;;;6.25;3.47;;;;;;;3.17;73.80;95790.38;1729785;82;21507;-84
2021/01/21 06:03:10;;;;;;;6.90;3.92;;;;;;;3.22;73.82;95800.09;1757317;82;21116;-84
2021/01/21 06:05:38;;;;;;;8.68;4.05;;;;;;;3.27;73.63;95784.43;1757137;82;21180;-84
2021/01/21 06:08:06;;;;;;;9.60;5.08;;;;;;;3.22;73.45;95792.23;1757550;81;21305;-84
2021/01/21 06:10:34;;;;;;;6.47;3.98;;;;;;;3.16;73.53;95788.02;1757274;82;21128;-84
2021/01/21 06:13:06;;;;;;;8.18;4.50;;;;;;;3.10;73.58;95781.17;1757379;82;21523;-84
2021/01/21 06:15:33;;;;;;;5.67;3.60;;;;;;;3.08;73.77;95777.47;1756971;82;21147;-84
2021/01/21 06:18:00;;;;;;;8.15;4.17;;;;;;;3.03;73.81;95778.75;1757091;82;21166;-84
2021/01/21 06:20:28;;;;;;;6.22;3.95;;;;;;;3.00;73.92;95791.03;1757173;82;21502;-84
2021/01/21 06:22:56;;;;;;;6.65;3.77;;;;;;;2.98;74.05;95777.41;1757129;82;21159;-84
2021/01/21 06:25:26;;;;;;;6.67;3.47;;;;;;;2.95;74.17;95800.14;1754522;82;21167;-84
2021/01/21 06:27:54;;;;;;;6.57;3.10;;;;;;;2.94;74.23;95794.12;1751968;82;21293;-84
2021/01/21 06:30:22;;;;;;;8.18;4.35;;;;;;;2.92;74.30;95789.66;1751448;81;21128;-84
2021/01/21 06:33:07;;;;;;;7.42;3.95;;;;;;;2.91;74.36;95799.86;1751782;82;21277;-84
2021/01/21 06:35:55;;;;;;;6.55;4.55;;;;;;;2.89;74.43;95792.77;1751778;82;21156;-84
2021/01/21 06:38:28;;;;;;;9.18;4.20;;;;;;;2.88;74.55;95803.50;1750925;81;21278;-84
2021/01/21 06:40:58;;;;;;;5.28;3.17;;;;;;;2.87;74.67;95797.47;1751541;82;21116;-85
2021/01/21 06:43:39;;;;;;;5.30;3.20;;;;;;;2.87;74.68;95780.98;1752040;82;21140;-85
2021/01/21 06:46:15;;;;;;;3.45;2.08;;;;;;;2.88;74.72;95795.13;1751535;82;21096;-84
2021/01/21 06:48:48;;;;;;;6.58;3.87;;;;;;;2.88;74.96;95783.34;1751220;81;21151;-84
2021/01/21 06:51:17;;;;;;;6.22;3.95;;;;;;;2.93;75.08;95798.30;1751525;82;21152;-85
2021/01/21 06:53:51;;;;;;;9.00;4.47;;;;;;;3.00;75.02;95797.58;1751556;81;21167;-84
2021/01/21 06:56:18;;;;;;;7.95;4.35;;;;;;;3.27;74.62;95804.08;1751804;81;21306;-85
2021/01/21 06:58:53;;;;;;;8.80;5.28;;;;;;;3.51;74.20;95798.71;1751568;81;21270;-84
2021/01/21 07:01:40;;;;;;;16.45;8.28;;;;;;;3.79;73.70;95802.80;1751561;81;21093;-85
2021/01/21 07:04:20;;;;;;;11.43;5.85;;;;;;;4.00;72.87;95801.08;1751626;81;21650;-85
2021/01/21 07:07:03;;;;;;;10.00;5.13;;;;;;;4.23;72.19;95806.42;1751749;82;21136;-84
2021/01/21 07:09:28;;;;;;;9.08;4.83;;;;;;;4.42;71.14;95806.73;1751796;81;21521;-82
2021/01/21 07:12:00;;;;;;;8.03;4.75;;;;;;;4.52;70.70;95821.20;1751692;82;21159;-82
2021/01/21 07:14:35;;;;;;;8.88;5.40;;;;;;;4.60;70.11;95816.74;1751609;82;21476;-82
2021/01/21 07:17:06;;;;;;;8.73;5.30;;;;;;;4.87;69.73;95806.02;1751337;82;21152;-83
2021/01/21 07:19:40;;;;;;;6.67;3.87;;;;;;;4.99;68.95;95810.50;1751515;81;21172;-83
2021/01/21 07:22:21;;;;;;;8.98;4.70;;;;;;;5.12;68.35;95810.51;1751694;82;21270;-84
2021/01/21 07:25:00;;;;;;;;;;;;;;;5.21;68.20;95807.63;1754061;82;21096;-84
2021/01/21 07:27:31;;;;;;;9.78;5.10;;;;;;;5.43;67.76;95799.98;1751620;81;20357;-83
2021/01/21 07:30:17;;;;;;;;;;;;;;;5.47;67.40;95807.59;1754157;81;21151;-83
2021/01/21 07:32:45;;;;;;;6.60;3.87;;;;;;;5.69;66.65;95808.61;1751652;81;20364;-83
2021/01/21 07:35:36;;;;;;;6.37;4.28;;;;;;;5.88;66.33;95806.98;1722158;82;21512;-84
2021/01/21 07:38:03;;;;;;;6.25;4.22;;;;;;;6.18;66.40;95801.64;1751999;81;21163;-84
2021/01/21 07:40:49;;;;;;;5.00;3.17;;;;;;;6.39;65.29;95807.61;1751782;82;21140;-84
2021/01/21 07:43:16;;;;;;;8.65;4.53;;;;;;;6.55;64.19;95792.52;1751936;82;21093;-84
2021/01/21 07:45:44;;;;;;;7.10;4.00;;;;;;;6.54;63.66;95793.05;1751644;82;21306;-84
2021/01/21 07:48:27;;;;;;;8.03;5.00;;;;;;;6.64;63.89;95799.33;1751537;81;21531;-84
2021/01/21 07:50:55;;;;;;;8.93;4.90;;;;;;;6.73;63.48;95788.45;1751678;81;21282;-84
2021/01/21 07:53:27;;;;;;;13.32;6.80;;;;;;;6.79;63.28;95797.38;1722463;82;21213;-84
2021/01/21 07:55:59;;;;;;;6.58;4.42;;;;;;;6.80;62.78;95791.05;1751682;82;21127;-84
2021/01/21 07:58:34;;;;;;;12.80;6.80;;;;;;;6.62;61.96;95785.13;1750798;81;21321;-84
2021/01/21 08:01:00;;;;;;;7.22;3.90;;;;;;;6.49;63.00;95796.25;1751623;82;21290;-84
2021/01/21 08:03:35;;;;;;;11.10;6.37;;;;;;;6.60;62.54;95787.22;1751881;82;21274;-84
2021/01/21 08:06:19;;;;;;;6.62;3.40;;;;;;;6.83;63.15;95797.08;1751569;82;21258;-85
2021/01/21 08:08:49;;;;;;;9.65;5.47;;;;;;;6.84;61.44;95784.70;1751321;81;21117;-84
2021/01/21 08:11:23;;;;;;;8.15;4.65;;;;;;;6.73;62.21;95787.14;1752034;82;21258;-84
2021/01/21 08:13:58;;;;;;;7.03;3.87;;;;;;;6.86;62.59;95789.16;1751720;82;21610;-84
2021/01/21 08:16:25;;;;;;;7.78;3.87;;;;;;;6.91;61.75;95789.14;1751911;81;21128;-84
2021/01/21 08:19:02;;;;;;;9.13;4.28;;;;;;;6.88;61.34;95793.63;1751691;81;21152;-84
2021/01/21 08:21:30;;;;;;;9.73;4.62;;;;;;;6.94;61.48;95785.95;1751665;82;21615;-84
2021/01/21 08:24:04;;;;;;;6.20;4.17;;;;;;;6.63;61.36;95790.64;1751693;82;21476;-84
2021/01/21 08:26:33;;;;;;;9.73;4.62;;;;;;;6.41;61.86;95788.38;1751427;82;21159;-84
2021/01/21 08:29:01;;;;;;;6.62;4.15;;;;;;;6.24;62.38;95780.05;1751729;81;21309;-85
2021/01/21 08:31:47;;;;;;;5.80;4.08;;;;;;;6.17;62.70;95787.44;1751864;82;21160;-85
2021/01/21 08:34:24;;;;;;;9.13;4.37;;;;;;;6.07;62.86;95792.77;1751729;82;21258;-85
2021/01/21 08:37:04;;;;;;;7.40;4.20;;;;;;;5.97;63.39;95802.00;1751715;82;21105;-85
2021/01/21 08:39:34;;;;;;;7.40;4.75;;;;;;;5.82;63.79;95804.91;1751838;81;21148;-85
2021/01/21 08:42:04;;;;;;;10.20;4.90;;;;;;;5.84;63.92;95798.84;1751924;81;21117;-85
2021/01/21 08:44:32;;;;;;;8.85;5.42;;;;;;;5.91;63.95;95788.05;1751815;82;21155;-85
2021/01/21 08:47:01;;;;;;;8.03;4.60;;;;;;;5.93;63.82;95793.86;1751440;82;21147;-85
2021/01/21 08:49:34;;;;;;;7.97;4.50;;;;;;;5.86;63.57;95811.20;1751770;81;21185;-85
2021/01/21 08:52:10;;;;;;;8.35;4.40;;;;;;;5.68;63.86;95803.89;1751723;82;21278;-85
2021/01/21 08:54:37;;;;;;;7.40;4.25;;;;;;;5.56;64.39;95810.73;1751772;82;21151;-86
2021/01/21 08:57:08;;;;;;;5.70;3.42;;;;;;;5.60;64.64;95803.09;1751658;81;21294;-85
2021/01/21 08:59:38;;;;;;;5.70;3.40;;;;;;;5.48;64.70;95774.45;1751636;81;21342;-85
2021/01/21 09:02:06;;;;;;;8.58;4.62;;;;;;;5.43;65.03;95801.30;1751661;81;21535;-85
2021/01/21 09:04:35;;;;;;;8.93;4.85;;;;;;;5.45;65.18;95796.02;1751696;81;21286;-85
2021/01/21 09:07:06;;;;;;;9.67;5.20;;;;;;;5.50;65.34;95805.77;1752279;81;21140;-85
2021/01/21 09:09:38;;;;;;;7.47;4.08;;;;;;;5.51;65.10;95790.25;1751800;81;21167;-85
2021/01/21 09:12:24;;;;;;;10.38;5.80;;;;;;;5.51;65.24;95806.03;1751689;81;21627;-85
2021/01/21 09:15:05;;;;;;;8.73;5.28;;;;;;;5.48;65.38;95801.27;1751675;82;21123;-84
2021/01/21 09:17:35;;;;;;;11.12;6.15;;;;;;;5.56;65.47;95801.53;1751513;82;21619;-85
2021/01/21 09:20:21;;;;;;;9.08;5.55;;;;;;;5.57;65.37;95805.73;1751691;81;21282;-84
2021/01/21 09:22:49;;;;;;;11.25;6.70;;;;;;;5.55;65.29;95795.23;1751671;82;21155;-85
2021/01/21 09:25:27;;;;;;;9.88;5.35;;;;;;;5.50;65.45;95801.30;1751909;82;21144;-85
2021/01/21 09:27:57;;;;;;;6.90;4.50;;;;;;;5.52;65.47;95807.59;1757358;82;21164;-85
2021/01/21 09:30:24;;;;;;;12.03;5.97;;;;;;;5.56;65.49;95817.31;1756916;81;21160;-85
2021/01/21 09:32:52;;;;;;;11.88;6.03;;;;;;;5.61;65.39;95809.93;1757331;81;21155;-85
2021/01/21 09:35:23;;;;;;;9.75;6.05;;;;;;;5.72;65.23;95820.70;1757180;82;21163;-85
2021/01/21 09:37:55;;;;;;;12.63;7.30;;;;;;;5.74;65.08;95804.12;1757515;82;21273;-85
2021/01/21 09:40:27;;;;;;;14.43;7.35;;;;;;;5.80;65.07;95797.02;1757320;81;21630;-85
2021/01/21 09:42:58;;;;;;;13.00;7.12;;;;;;;5.83;65.08;95797.80;1756897;82;21124;-85
2021/01/21 09:45:28;;;;;;;13.48;7.60;;;;;;;5.83;64.86;95807.79;1757242;81;21495;-86
2021/01/21 09:47:57;;;;;;;13.60;6.70;;;;;;;5.84;64.75;95804.10;1757186;82;21185;-85
2021/01/21 09:50:27;;;;;;;14.07;8.00;;;;;;;5.86;64.62;95813.03;1757371;81;21140;-85
2021/01/21 09:52:54;;;;;;;15.38;8.50;;;;;;;5.84;64.85;95815.94;1757135;82;21139;-85
2021/01/21 09:55:21;;;;;;;11.65;6.65;;;;;;;5.90;64.71;95815.41;1757148;82;21148;-85
2021/01/21 09:57:50;;;;;;;15.00;8.53;;;;;;;6.04;64.67;95824.84;1757155;82;21131;-85
2021/01/21 10:00:20;;;;;;;11.85;6.60;;;;;;;6.14;64.74;95819.03;1757261;81;21541;-85
2021/01/21 10:02:47;;;;;;;9.53;5.37;;;;;;;6.14;64.18;95801.14;1757389;81;21139;-85
2021/01/21 10:05:14;;;;;;;11.38;6.60;;;;;;;6.15;63.99;95792.97;1757155;81;21424;-83
2021/01/21 10:07:42;;;;;;;11.85;7.08;;;;;;;6.20;64.25;95806.12;1757235;81;21492;-83
2021/01/21 10:10:10;;;;;;;11.95;6.67;;;;;;;6.26;63.96;95798.98;1757144;81;21192;-83
2021/01/21 10:12:37;;;;;;;11.95;7.45;;;;;;;6.31;63.94;95802.91;1757404;81;21147;-83
2021/01/21 10:15:07;;;;;;;11.43;5.87;;;;;;;6.38;63.93;95794.19;1757160;81;21209;-85
2021/01/21 10:17:34;;;;;;;11.83;6.72;;;;;;;6.42;63.71;95801.80;1756915;81;21139;-84
2021/01/21 10:20:01;;;;;;;13.65;6.90;;;;;;;6.45;63.96;95788.09;1757089;81;21184;-83
2021/01/21 10:22:28;;;;;;;12.03;6.25;;;;;;;6.51;63.80;95784.38;1757224;82;21131;-83
2021/01/21 10:24:56;;;;;;;10.78;6.35;;;;;;;6.62;63.81;95798.81;1757400;82;21299;-84
2021/01/21 10:27:27;;;;;;;14.30;7.05;;;;;;;6.63;63.27;95783.27;1752361;82;21140;-84
2021/01/21 10:29:55;;;;;;;12.23;7.65;;;;;;;6.66;63.22;95791.94;1751501;81;21519;-83
2021/01/21 10:32:22;;;;;;;10.25;5.12;;;;;;;6.73;62.94;95787.92;1751540;81;21147;-83
2021/01/21 10:34:49;;;;;;;12.75;6.72;;;;;;;6.78;62.83;95784.48;1751782;82;21171;-84
2021/01/21 10:37:16;;;;;;;11.70;6.37;;;;;;;6.77;62.85;95777.12;1751497;82;21136;-83
2021/01/21 10:39:43;;;;;;;10.80;6.08;;;;;;;6.81;63.07;95782.62;1751610;81;21266;-83
2021/01/21 10:42:11;;;;;;;11.68;6.50;;;;;;;6.90;62.87;95770.95;1751877;82;21506;-83
2021/01/21 10:44:38;;;;;;;10.70;5.67;;;;;;;6.94;62.93;95760.92;1751610;81;21274;-83
2021/01/21 10:47:05;;;;;;;11.65;6.00;;;;;;;7.04;62.34;95777.98;1751340;82;21570;-83
2021/01/21 10:49:32;;;;;;;11.57;6.70;;;;;;;7.02;62.62;95769.53;1751497;81;21184;-83
2021/01/21 10:52:00;;;;;;;12.60;6.62;;;;;;;7.02;62.27;95759.53;1751596;82;21143;-83
2021/01/21 10:54:29;;;;;;;13.05;6.55;;;;;;;7.06;62.55;95757.41;1751485;82;21120;-83
2021/01/21 10:56:56;;;;;;;13.32;6.37;;;;;;;7.11;62.44;95750.76;1751673;82;21294;-83
2021/01/21 10:59:24;;;;;;;13.90;6.78;;;;;;;7.12;62.32;95746.28;1751496;81;21511;-84
2021/01/21 11:01:51;;;;;;;8.88;4.92;;;;;;;7.15;62.29;95738.59;1751526;82;21167;-83
2021/01/21 11:04:19;;;;;;;12.10;6.17;;;;;;;7.20;61.85;95730.41;1751525;81;21175;-83
2021/01/21 11:06:46;;;;;;;10.25;5.78;;;;;;;7.22;62.17;95743.56;1751510;82;21167;-83
2021/01/21 11:09:13;;;;;;;10.68;6.22;;;;;;;7.25;61.79;95733.77;1751554;81;21164;-83
2021/01/21 11:11:40;;;;;;;8.50;5.28;;;;;;;7.24;62.07;95734.05;1751607;81;21276;-83
2021/01/21 11:14:07;;;;;;;12.43;6.40;;;;;;;7.28;61.65;95733.74;1751925;82;21131;-83
2021/01/21 11:16:34;;;;;;;11.68;6.25;;;;;;;7.28;61.71;95732.42;1751818;82;21277;-83
2021/01/21 11:19:01;;;;;;;10.70;5.17;;;;;;;7.28;61.28;95723.98;1751627;81;21315;-83
2021/01/21 11:21:29;;;;;;;10.05;5.90;;;;;;;7.25;61.48;95723.23;1751677;82;21650;-83
2021/01/21 11:23:56;;;;;;;10.38;6.40;;;;;;;7.24;61.22;95722.19;1751843;82;21343;-83
2021/01/21 11:26:23;;;;;;;8.48;5.42;;;;;;;7.26;61.38;95706.34;1751617;82;21318;-83
2021/01/21 11:28:50;;;;;;;9.13;5.20;;;;;;;7.30;60.95;95693.38;1751808;81;21301;-83
2021/01/21 11:31:17;;;;;;;13.08;6.17;;;;;;;7.25;60.69;95704.77;1751687;82;21642;-83
2021/01/21 11:33:44;;;;;;;9.35;4.85;;;;;;;7.27;61.05;95705.27;1751664;82;21108;-83
2021/01/21 11:36:12;;;;;;;12.40;6.58;;;;;;;7.36;60.84;95693.59;1751711;81;21143;-83
2021/01/21 11:38:39;;;;;;;10.38;5.37;;;;;;;7.40;60.67;95695.39;1751747;81;21290;-84
2021/01/21 11:41:06;;;;;;;10.03;5.03;;;;;;;7.39;60.74;95696.98;1751766;82;21560;-83
2021/01/21 11:43:33;;;;;;;12.37;5.97;;;;;;;7.40;60.64;95679.56;1751784;82;21301;-83
2021/01/21 11:46:00;;;;;;;9.78;5.70;;;;;;;7.51;60.93;95686.06;1751864;81;21266;-83
2021/01/21 11:48:28;;;;;;;8.43;4.60;;;;;;;7.45;60.58;95665.53;1751493;81;21112;-85
2021/01/21 11:50:55;;;;;;;9.30;5.50;;;;;;;7.52;60.00;95659.41;1751645;82;21143;-85
2021/01/21 11:53:22;;;;;;;12.53;5.10;;;;;;;7.52;60.20;95670.48;1751824;81;21159;-85